createdAt,value
2018-04-28T00:02:25.768Z,5.00
2018-04-28T00:04:54.091Z,5.30
2018-04-28T00:07:21.650Z,6.70
2018-04-28T00:09:49.281Z,5.73
2018-04-28T00:12:16.857Z,7.70
2018-04-28T00:14:44.409Z,6.97
2018-04-28T00:17:16.856Z,7.07
2018-04-28T00:19:50.008Z,5.83
2018-04-28T00:22:23.274Z,6.80
2018-04-28T00:24:55.340Z,4.70
2018-04-28T00:27:28.822Z,6.80
2018-04-28T00:29:58.168Z,5.80
2018-04-28T00:32:25.713Z,5.40
2018-04-28T00:34:55.060Z,5.00
2018-04-28T00:37:23.479Z,4.60
2018-04-28T00:39:54.876Z,4.90
2018-04-28T00:42:29.013Z,5.40
2018-04-28T00:44:57.410Z,5.07
2018-04-28T00:47:26.399Z,4.00
2018-04-28T00:50:06.516Z,4.37
2018-04-28T00:52:34.052Z,3.60
2018-04-28T00:58:06.951Z,4.30
2018-04-28T01:00:40.385Z,4.30
2018-04-28T01:03:07.988Z,4.20
2018-04-28T01:05:43.346Z,4.60
2018-04-28T01:08:10.912Z,6.37
2018-04-28T01:10:38.585Z,4.80
2018-04-28T01:13:10.064Z,4.80
2018-04-28T01:15:38.323Z,4.90
2018-04-28T01:18:05.879Z,7.10
2018-04-28T01:20:44.084Z,5.50
2018-04-28T01:23:11.636Z,4.30
2018-04-28T01:25:42.185Z,4.40
2018-04-28T01:28:10.579Z,7.13
2018-04-28T01:30:42.044Z,4.70
2018-04-28T01:33:30.322Z,4.30
2018-04-28T01:36:25.173Z,4.03
2018-04-28T01:42:24.065Z,4.70
2018-04-28T01:45:00.452Z,4.90
2018-04-28T01:47:42.892Z,4.90
2018-04-28T01:50:11.388Z,5.00
2018-04-28T01:52:39.740Z,4.73
2018-04-28T01:55:12.974Z,5.27
2018-04-28T01:57:52.977Z,6.33
2018-04-28T02:00:31.124Z,5.07
2018-04-28T02:03:07.412Z,5.80
2018-04-28T02:05:51.574Z,5.53
2018-04-28T02:08:19.201Z,6.60
2018-04-28T02:10:59.087Z,6.40
2018-04-28T02:13:46.513Z,5.60
2018-04-28T02:16:14.099Z,5.70
2018-04-28T02:19:04.167Z,5.83
2018-04-28T02:21:43.695Z,5.80
2018-04-28T02:27:11.791Z,6.00
2018-04-28T02:29:55.164Z,7.97
2018-04-28T02:32:28.478Z,5.67
2018-04-28T02:35:06.616Z,5.93
2018-04-28T02:37:39.600Z,6.33
2018-04-28T02:40:27.088Z,5.30
2018-04-28T02:42:59.079Z,5.17
2018-04-28T02:45:47.500Z,6.30
2018-04-28T02:48:26.686Z,6.77
2018-04-28T02:51:05.996Z,4.83
2018-04-28T02:53:35.113Z,5.33
2018-04-28T02:59:13.851Z,5.17
2018-04-28T03:01:58.940Z,4.80
2018-04-28T03:04:42.209Z,5.27
2018-04-28T03:07:17.489Z,4.93
2018-04-28T03:09:49.435Z,5.53
2018-04-28T03:12:19.931Z,5.13
2018-04-28T03:14:50.413Z,4.60
2018-04-28T03:17:22.782Z,4.90
2018-04-28T03:20:05.186Z,4.53
2018-04-28T03:22:34.383Z,4.83
2018-04-28T03:25:19.520Z,5.13
2018-04-28T03:27:50.834Z,4.73
2018-04-28T03:30:19.191Z,5.27
2018-04-28T03:32:47.707Z,5.70
2018-04-28T03:35:17.918Z,5.33
2018-04-28T03:38:02.251Z,4.73
2018-04-28T03:40:30.579Z,4.50
2018-04-28T03:42:58.993Z,4.80
2018-04-28T03:45:35.808Z,4.60
2018-04-28T03:51:17.921Z,4.53
2018-04-28T03:54:02.098Z,4.97
2018-04-28T03:56:40.288Z,4.13
2018-04-28T03:59:19.746Z,4.00
2018-04-28T04:01:58.999Z,4.00
2018-04-28T04:04:44.038Z,3.90
2018-04-28T04:07:20.382Z,4.70
2018-04-28T04:09:53.873Z,4.30
2018-04-28T04:12:55.911Z,3.97
2018-04-28T04:15:38.332Z,4.33
2018-04-28T04:18:13.670Z,6.70
2018-04-28T04:20:53.113Z,4.13
2018-04-28T04:23:38.310Z,4.00
2018-04-28T04:26:29.114Z,3.43
2018-04-28T04:29:12.170Z,3.83
2018-04-28T04:31:51.491Z,4.27
2018-04-28T04:34:45.588Z,5.03
2018-04-28T04:37:31.126Z,4.40
2018-04-28T04:40:07.971Z,3.60
2018-04-28T04:42:43.153Z,5.77
2018-04-28T04:45:15.311Z,5.00
2018-04-28T04:48:06.200Z,5.87
2018-04-28T04:50:55.321Z,5.20
2018-04-28T04:56:45.327Z,4.77
2018-04-28T04:59:23.688Z,5.37
2018-04-28T05:02:03.064Z,5.00
2018-04-28T05:07:35.283Z,5.90
2018-04-28T05:10:19.479Z,4.83
2018-04-28T05:12:54.873Z,4.17
2018-04-28T05:15:34.897Z,4.63
2018-04-28T05:18:15.099Z,4.40
2018-04-28T05:23:52.859Z,4.10
2018-04-28T05:26:42.067Z,4.37
2018-04-28T05:29:16.316Z,4.40
2018-04-28T05:31:51.735Z,4.43
2018-04-28T05:37:48.655Z,3.90
2018-04-28T05:40:18.600Z,4.13
2018-04-28T05:42:57.970Z,3.67
2018-04-28T05:45:37.265Z,3.90
2018-04-28T05:48:32.399Z,3.97
2018-04-28T05:51:06.600Z,4.00
2018-04-28T05:53:55.946Z,4.10
2018-04-28T05:56:29.875Z,4.43
2018-04-28T05:59:20.972Z,3.70
2018-04-28T06:01:52.829Z,3.40
2018-04-28T06:04:28.844Z,4.13
2018-04-28T06:07:08.370Z,3.40
2018-04-28T06:09:42.660Z,3.90
2018-04-28T06:12:28.435Z,4.10
2018-04-28T06:15:01.813Z,3.53
2018-04-28T06:17:41.132Z,3.37
2018-04-28T06:20:20.356Z,3.83
2018-04-28T06:22:47.973Z,3.80
2018-04-28T06:25:16.289Z,4.10
2018-04-28T06:27:43.851Z,3.67
2018-04-28T06:30:11.511Z,3.50
2018-04-28T06:32:39.110Z,3.20
2018-04-28T06:35:06.698Z,4.07
2018-04-28T06:37:35.036Z,3.70
2018-04-28T06:40:02.659Z,3.60
2018-04-28T06:42:30.230Z,4.10
2018-04-28T06:44:57.797Z,3.73
2018-04-28T06:47:25.340Z,3.83
2018-04-28T06:49:52.920Z,2.83
2018-04-28T06:52:20.555Z,3.53
2018-04-28T06:54:48.880Z,3.87
2018-04-28T06:57:16.452Z,3.90
2018-04-28T06:59:44.002Z,4.07
2018-04-28T07:02:11.588Z,3.30
2018-04-28T07:04:39.210Z,3.13
2018-04-28T07:07:06.740Z,3.43
2018-04-28T07:09:34.371Z,5.90
2018-04-28T07:12:01.988Z,3.50
2018-04-28T07:14:29.552Z,3.00
2018-04-28T07:16:57.151Z,4.13
2018-04-28T07:19:24.691Z,3.90
2018-04-28T07:21:52.270Z,3.50
2018-04-28T07:24:20.741Z,3.23
2018-04-28T07:26:48.308Z,3.40
2018-04-28T07:29:15.959Z,3.60
2018-04-28T07:31:44.221Z,3.90
2018-04-28T07:34:11.796Z,3.23
2018-04-28T07:36:39.345Z,6.47
2018-04-28T07:39:06.952Z,3.73
2018-04-28T07:41:34.523Z,5.17
2018-04-28T07:44:02.867Z,4.27
2018-04-28T07:46:30.472Z,3.67
2018-04-28T07:48:58.033Z,4.50
2018-04-28T07:51:26.380Z,4.43
2018-04-28T07:53:53.963Z,4.00
2018-04-28T07:56:21.519Z,3.40
2018-04-28T07:58:49.859Z,4.03
2018-04-28T08:01:17.437Z,3.73
2018-04-28T08:03:45.003Z,5.37
2018-04-28T08:06:12.629Z,3.87
2018-04-28T08:08:40.194Z,4.80
2018-04-28T08:11:07.787Z,3.60
2018-04-28T08:13:35.392Z,4.13
2018-04-28T08:16:02.941Z,3.63
2018-04-28T08:18:30.532Z,4.43
2018-04-28T08:20:58.118Z,5.20
2018-04-28T08:23:25.704Z,3.70
2018-04-28T08:25:54.100Z,3.63
2018-04-28T08:28:22.438Z,3.70
2018-04-28T08:30:50.069Z,3.67
2018-04-28T08:33:17.660Z,3.83
2018-04-28T08:35:45.280Z,3.50
2018-04-28T08:38:12.927Z,6.30
2018-04-28T08:40:40.486Z,5.10
2018-04-28T08:43:08.832Z,3.77
2018-04-28T08:45:36.397Z,4.00
2018-04-28T08:48:03.938Z,4.63
2018-04-28T08:50:31.530Z,3.77
2018-04-28T08:52:59.117Z,3.83
2018-04-28T08:55:27.521Z,4.10
2018-04-28T08:57:55.072Z,3.50
2018-04-28T09:00:30.284Z,3.57
2018-04-28T09:02:58.612Z,3.33
2018-04-28T09:05:26.767Z,4.10
2018-04-28T09:07:54.340Z,3.43
2018-04-28T09:10:21.934Z,6.33
2018-04-28T09:12:49.514Z,4.53
2018-04-28T09:15:17.964Z,3.70
2018-04-28T09:17:45.517Z,3.97
2018-04-28T09:20:13.076Z,4.33
2018-04-28T09:22:40.666Z,4.50
2018-04-28T09:25:08.264Z,3.63
2018-04-28T09:27:35.877Z,3.70
2018-04-28T09:30:04.280Z,4.47
2018-04-28T09:32:31.915Z,4.60
2018-04-28T09:34:59.526Z,4.00
2018-04-28T09:37:27.111Z,4.07
2018-04-28T09:39:54.702Z,3.60
2018-04-28T09:42:22.320Z,4.40
2018-04-28T09:44:49.896Z,4.70
2018-04-28T09:47:17.518Z,3.83
2018-04-28T09:49:45.893Z,4.23
2018-04-28T09:52:14.235Z,3.83
2018-04-28T09:54:41.841Z,4.13
2018-04-28T09:57:10.184Z,3.93
2018-04-28T09:59:37.764Z,7.13
2018-04-28T10:02:10.965Z,3.90
2018-04-28T10:04:39.327Z,4.17
2018-04-28T10:07:06.924Z,3.87
2018-04-28T10:09:35.342Z,5.43
2018-04-28T10:12:02.923Z,3.73
2018-04-28T10:14:30.527Z,3.93
2018-04-28T10:16:58.122Z,4.60
2018-04-28T10:19:25.710Z,2.77
2018-04-28T10:21:53.288Z,2.93
2018-04-28T10:24:20.925Z,3.07
2018-04-28T10:26:48.492Z,3.10
2018-04-28T10:29:16.205Z,3.90
2018-04-28T10:31:43.696Z,4.27
2018-04-28T10:34:11.284Z,3.67
2018-04-28T10:36:38.875Z,3.53
2018-04-28T10:39:08.124Z,3.50
2018-04-28T10:41:35.683Z,2.73
2018-04-28T10:44:03.297Z,3.40
2018-04-28T10:46:31.672Z,3.13
2018-04-28T10:49:00.063Z,3.20
2018-04-28T10:51:27.644Z,2.97
2018-04-28T10:53:55.430Z,2.93
2018-04-28T10:56:22.784Z,2.63
2018-04-28T10:58:50.359Z,3.67
2018-04-28T11:01:17.992Z,3.00
2018-04-28T11:03:45.555Z,4.10
2018-04-28T11:06:13.298Z,3.90
2018-04-28T11:08:41.618Z,4.50
2018-04-28T11:11:09.207Z,3.60
2018-04-28T11:13:37.536Z,2.80
2018-04-28T11:16:05.133Z,3.13
2018-04-28T11:18:32.692Z,2.80
2018-04-28T11:21:00.286Z,3.87
2018-04-28T11:23:28.641Z,2.63
2018-04-28T11:25:56.237Z,3.13
2018-04-28T11:28:24.572Z,3.00
2018-04-28T11:30:52.188Z,4.60
2018-04-28T11:33:19.781Z,3.47
2018-04-28T11:35:47.409Z,2.83
2018-04-28T11:38:14.972Z,4.97
2018-04-28T11:40:42.550Z,3.57
2018-04-28T11:43:10.136Z,3.30
2018-04-28T11:45:37.726Z,4.23
2018-04-28T11:48:05.285Z,3.13
2018-04-28T11:50:33.660Z,3.20
2018-04-28T11:53:01.252Z,3.10
2018-04-28T11:55:29.572Z,3.30
2018-04-28T11:57:57.164Z,2.90
2018-04-28T12:00:24.759Z,4.57
2018-04-28T12:02:52.328Z,3.47
2018-04-28T12:05:19.911Z,3.80
2018-04-28T12:07:47.487Z,3.20
2018-04-28T12:10:15.070Z,3.10
2018-04-28T12:12:43.488Z,2.93
2018-04-28T12:15:11.007Z,3.07
2018-04-28T12:17:39.344Z,3.10
2018-04-28T12:20:06.964Z,3.00
2018-04-28T12:22:35.288Z,2.60
2018-04-28T12:25:02.879Z,3.23
2018-04-28T12:27:30.442Z,3.33
2018-04-28T12:29:58.109Z,3.10
2018-04-28T12:32:26.384Z,3.13
2018-04-28T12:34:53.991Z,3.80
2018-04-28T12:37:21.534Z,3.00
2018-04-28T12:39:49.235Z,3.70
2018-04-28T12:42:16.803Z,3.40
2018-04-28T12:44:44.375Z,4.30
2018-04-28T12:47:12.037Z,2.87
2018-04-28T12:49:39.628Z,3.57
2018-04-28T12:52:07.232Z,3.03
2018-04-28T12:54:34.787Z,3.67
2018-04-28T12:57:02.429Z,2.80
2018-04-28T12:59:30.005Z,3.63
2018-04-28T13:01:57.595Z,2.63
2018-04-28T13:04:25.202Z,3.30
2018-04-28T13:06:53.678Z,3.23
2018-04-28T13:09:21.218Z,2.70
2018-04-28T13:11:48.800Z,2.47
2018-04-28T13:14:17.160Z,5.20
2018-04-28T13:16:44.745Z,4.27
2018-04-28T13:19:13.121Z,3.10
2018-04-28T13:21:41.471Z,3.87
2018-04-28T13:24:09.310Z,4.00
2018-04-28T13:26:36.889Z,2.93
2018-04-28T13:29:04.523Z,3.53
2018-04-28T13:31:32.132Z,3.00
2018-04-28T13:33:59.684Z,4.20
2018-04-28T13:36:27.275Z,3.63
2018-04-28T13:38:56.060Z,3.27
2018-04-28T13:41:24.431Z,2.73
2018-04-28T13:43:51.997Z,3.00
2018-04-28T13:46:20.354Z,2.63
2018-04-28T13:48:48.764Z,3.60
2018-04-28T13:51:17.101Z,3.40
2018-04-28T13:53:44.688Z,3.03
2018-04-28T13:56:12.235Z,3.23
2018-04-28T13:58:39.810Z,3.83
2018-04-28T14:01:07.370Z,3.10
2018-04-28T14:03:34.961Z,3.63
2018-04-28T14:06:02.541Z,3.07
2018-04-28T14:08:30.153Z,3.00
2018-04-28T14:10:57.721Z,4.20
2018-04-28T14:13:25.304Z,3.30
2018-04-28T14:15:52.880Z,3.73
2018-04-28T14:18:20.496Z,3.57
2018-04-28T14:20:48.107Z,6.33
2018-04-28T14:23:15.702Z,4.20
2018-04-28T14:25:43.275Z,3.80
2018-04-28T14:28:10.842Z,5.63
2018-04-28T14:30:38.609Z,4.10
2018-04-28T14:33:06.177Z,4.00
2018-04-28T14:35:33.802Z,3.50
2018-04-28T14:38:01.351Z,3.40
2018-04-28T14:40:28.939Z,3.67
2018-04-28T14:42:56.525Z,3.60
2018-04-28T14:45:24.896Z,3.40
2018-04-28T14:47:52.502Z,5.27
2018-04-28T14:50:20.081Z,3.40
2018-04-28T14:52:47.669Z,4.60
2018-04-28T14:55:15.282Z,3.90
2018-04-28T14:57:42.861Z,3.50
2018-04-28T15:00:11.192Z,3.50
2018-04-28T15:02:39.558Z,2.97
2018-04-28T15:05:07.124Z,3.93
2018-04-28T15:07:34.711Z,4.10
2018-04-28T15:10:02.424Z,4.70
2018-04-28T15:12:30.015Z,3.67
2018-04-28T15:14:58.392Z,5.27
2018-04-28T15:17:26.120Z,4.20
2018-04-28T15:19:53.683Z,6.03
2018-04-28T15:22:21.252Z,3.83
2018-04-28T15:24:48.811Z,3.90
2018-04-28T15:27:16.389Z,3.23
2018-04-28T15:29:43.963Z,3.73
2018-04-28T15:32:12.338Z,4.17
2018-04-28T15:34:39.899Z,4.37
2018-04-28T15:37:07.517Z,4.37
2018-04-28T15:39:35.124Z,4.53
2018-04-28T15:42:03.488Z,4.27
2018-04-28T15:44:31.071Z,6.17
2018-04-28T15:46:59.465Z,6.40
2018-04-28T15:49:27.787Z,5.27
2018-04-28T15:51:55.388Z,4.13
2018-04-28T15:54:22.976Z,4.13
2018-04-28T15:56:50.567Z,5.70
2018-04-28T15:59:18.172Z,4.03
2018-04-28T16:01:45.738Z,5.10
2018-04-28T16:04:14.089Z,4.00
2018-04-28T16:06:41.665Z,5.53
2018-04-28T16:09:09.289Z,3.80
2018-04-28T16:11:36.856Z,3.90
2018-04-28T16:14:04.464Z,3.77
2018-04-28T16:16:32.789Z,3.63
2018-04-28T16:19:00.424Z,3.87
2018-04-28T16:21:27.994Z,3.67
2018-04-28T16:23:55.590Z,3.87
2018-04-28T16:26:23.225Z,4.90
2018-04-28T16:28:50.818Z,5.63
2018-04-28T16:31:18.418Z,4.33
2018-04-28T16:33:46.761Z,4.80
2018-04-28T16:36:15.379Z,5.00
2018-04-28T16:38:43.723Z,5.60
2018-04-28T16:41:11.313Z,9.60
2018-04-28T16:43:39.650Z,7.60
2018-04-28T16:46:07.211Z,10.80
2018-04-28T16:48:34.853Z,7.00
2018-04-28T16:51:02.447Z,3.70
2018-04-28T16:53:30.037Z,3.70
2018-04-28T16:55:58.355Z,4.00
2018-04-28T16:58:25.949Z,4.17
2018-04-28T17:00:53.551Z,4.20
2018-04-28T17:03:21.900Z,5.10
2018-04-28T17:05:49.480Z,3.90
2018-04-28T17:08:17.897Z,5.53
2018-04-28T17:10:45.535Z,3.90
2018-04-28T17:13:13.935Z,5.23
2018-04-28T17:15:41.497Z,3.80
2018-04-28T17:18:09.152Z,5.10
2018-04-28T17:20:36.803Z,4.13
2018-04-28T17:23:04.393Z,3.50
2018-04-28T17:25:32.010Z,4.10
2018-04-28T17:28:00.335Z,3.70
2018-04-28T17:30:27.913Z,4.37
2018-04-28T17:32:55.483Z,5.80
2018-04-28T17:35:23.149Z,4.83
2018-04-28T17:37:50.706Z,4.33
2018-04-28T17:40:18.307Z,5.00
2018-04-28T17:42:46.710Z,5.70
2018-04-28T17:45:14.364Z,4.73
2018-04-28T17:47:41.952Z,4.73
2018-04-28T17:50:09.546Z,4.93
2018-04-28T17:52:37.137Z,4.70
2018-04-28T17:55:04.813Z,4.77
2018-04-28T17:57:32.453Z,5.30
2018-04-28T18:00:00.800Z,4.90
2018-04-28T18:02:28.408Z,5.07
2018-04-28T18:04:55.989Z,5.60
2018-04-28T18:10:11.690Z,4.90
2018-04-28T18:12:41.816Z,6.10
2018-04-28T18:15:09.415Z,4.53
2018-04-28T18:17:37.023Z,4.93
2018-04-28T18:20:04.601Z,4.30
2018-04-28T18:22:32.989Z,4.60
2018-04-28T18:25:00.586Z,4.33
2018-04-28T18:27:28.242Z,5.13
2018-04-28T18:29:55.815Z,5.10
2018-04-28T18:32:24.189Z,4.50
2018-04-28T18:34:51.769Z,5.20
2018-04-28T18:37:20.196Z,5.20
2018-04-28T18:39:47.793Z,4.60
2018-04-28T18:42:15.388Z,5.10
2018-04-28T18:44:42.995Z,5.77
2018-04-28T18:47:10.606Z,5.30
2018-04-28T18:49:38.947Z,6.10
2018-04-28T18:52:07.303Z,5.07
2018-04-28T18:54:35.018Z,6.27
2018-04-28T18:57:03.447Z,5.90
2018-04-28T18:59:31.085Z,5.93
2018-04-28T19:01:58.792Z,8.47
2018-04-28T19:04:26.415Z,8.80
2018-04-28T19:06:53.991Z,9.60
2018-04-28T19:09:21.598Z,6.97
2018-04-28T19:11:49.167Z,5.10
2018-04-28T19:14:17.584Z,5.13
2018-04-28T19:16:45.898Z,4.50
2018-04-28T19:19:13.485Z,4.30
2018-04-28T19:21:41.847Z,5.37
2018-04-28T19:24:09.431Z,4.70
2018-04-28T19:26:37.838Z,5.27
2018-04-28T19:29:05.419Z,6.57
2018-04-28T19:31:33.023Z,7.40
2018-04-28T19:34:00.556Z,6.87
2018-04-28T19:36:28.147Z,6.43
2018-04-28T19:38:56.587Z,7.43
2018-04-28T19:41:24.200Z,7.03
2018-04-28T19:43:52.568Z,6.70
2018-04-28T19:46:21.180Z,6.50
2018-04-28T19:48:48.877Z,5.73
2018-04-28T19:51:16.365Z,6.43
2018-04-28T19:53:43.957Z,6.43
2018-04-28T19:56:12.309Z,5.40
2018-04-28T19:58:39.880Z,5.97
2018-04-28T20:01:08.253Z,6.60
2018-04-28T20:03:35.838Z,6.63
2018-04-28T20:06:03.429Z,7.50
2018-04-28T20:08:31.020Z,6.23
2018-04-28T20:10:58.589Z,7.83
2018-04-28T20:13:26.184Z,7.80
2018-04-28T20:15:53.807Z,7.23
2018-04-28T20:18:21.397Z,7.07
2018-04-28T20:20:49.728Z,6.60
2018-04-28T20:23:29.116Z,8.30
2018-04-28T20:25:57.484Z,8.93
2018-04-28T20:28:25.874Z,8.00
2018-04-28T20:30:54.215Z,8.17
2018-04-28T20:33:21.825Z,6.70
2018-04-28T20:35:49.501Z,6.80
2018-04-28T20:38:17.003Z,7.00
2018-04-28T20:40:44.612Z,6.53
2018-04-28T20:43:13.034Z,5.70
2018-04-28T20:45:40.552Z,5.87
2018-04-28T20:48:08.139Z,6.13
2018-04-28T20:50:35.765Z,5.90
2018-04-28T20:53:04.099Z,6.80
2018-04-28T20:55:31.681Z,8.07
2018-04-28T20:57:59.362Z,6.20
2018-04-28T21:00:27.690Z,5.93
2018-04-28T21:02:55.285Z,5.73
2018-04-28T21:05:22.859Z,5.70
2018-04-28T21:07:51.189Z,5.10
2018-04-28T21:10:18.780Z,4.60
2018-04-28T21:12:46.352Z,5.10
2018-04-28T21:15:14.724Z,4.33
2018-04-28T21:17:42.303Z,5.20
2018-04-28T21:20:10.680Z,4.40
2018-04-28T21:22:39.039Z,4.70
2018-04-28T21:25:06.650Z,4.70
2018-04-28T21:27:34.208Z,4.83
2018-04-28T21:30:01.796Z,5.30
2018-04-28T21:32:29.389Z,4.60
2018-04-28T21:34:56.996Z,5.10
2018-04-28T21:37:24.661Z,5.50
2018-04-28T21:39:52.268Z,5.20
2018-04-28T21:42:19.842Z,4.83
2018-04-28T21:44:48.213Z,6.33
2018-04-28T21:47:15.873Z,5.03
2018-04-28T21:49:43.449Z,6.20
2018-04-28T21:52:11.784Z,6.50
2018-04-28T21:54:39.408Z,5.70
2018-04-28T21:57:06.979Z,6.10
2018-04-28T21:59:34.603Z,8.03
2018-04-28T22:02:02.216Z,6.70
2018-04-28T22:04:29.779Z,6.53
2018-04-28T22:06:57.373Z,6.00
2018-04-28T22:09:24.948Z,7.00
2018-04-28T22:11:52.533Z,5.87
2018-04-28T22:14:20.871Z,6.90
2018-04-28T22:16:48.476Z,6.87
2018-04-28T22:19:16.828Z,5.97
2018-04-28T22:21:44.394Z,5.97
2018-04-28T22:24:11.996Z,5.77
2018-04-28T22:26:40.365Z,5.47
2018-04-28T22:29:07.952Z,6.37
2018-04-28T22:31:35.538Z,6.30
2018-04-28T22:34:03.138Z,5.63
2018-04-28T22:36:31.480Z,5.77
2018-04-28T22:38:59.076Z,5.27
2018-04-28T22:41:27.622Z,5.20
2018-04-28T22:43:55.249Z,5.50
2018-04-28T22:46:22.833Z,5.30
2018-04-28T22:48:50.476Z,5.27
2018-04-28T22:51:18.292Z,5.40
2018-04-28T22:53:45.871Z,5.80
2018-04-28T22:56:14.261Z,6.30
2018-04-28T22:58:41.847Z,5.73
2018-04-28T23:01:09.440Z,5.80
2018-04-28T23:03:37.089Z,5.63
2018-04-28T23:06:04.743Z,5.03
2018-04-28T23:08:32.351Z,5.80
2018-04-28T23:11:00.691Z,6.03
2018-04-28T23:13:28.283Z,5.70
2018-04-28T23:15:55.956Z,6.90
2018-04-28T23:18:24.325Z,6.53
2018-04-28T23:20:51.935Z,6.20
2018-04-28T23:23:19.578Z,6.30
2018-04-28T23:25:47.087Z,5.90
2018-04-28T23:28:14.676Z,7.20
2018-04-28T23:30:43.093Z,7.50
2018-04-28T23:33:10.678Z,7.30
2018-04-28T23:35:38.246Z,8.77
2018-04-28T23:38:05.828Z,9.23
2018-04-28T23:40:33.430Z,6.47
2018-04-28T23:43:01.039Z,7.47
2018-04-28T23:45:28.812Z,7.87
2018-04-28T23:47:56.452Z,7.57
2018-04-28T23:50:24.042Z,7.77
2018-04-28T23:52:51.607Z,7.50
2018-04-28T23:55:19.156Z,8.40
2018-04-28T23:57:46.742Z,8.20
